sensor_id;sensor_type;location;lat;lon;timestamp;pressure;altitude;pressure_sealevel;temperature
74321;BMP280;62738;45.772;4.804;2023-08-07T00:01:46;100087.25;;;19.22
74321;BMP280;62738;45.772;4.804;2023-08-07T00:04:13;100086.84;;;19.28
74321;BMP280;62738;45.772;4.804;2023-08-07T00:06:39;100086.84;;;19.28
74321;BMP280;62738;45.772;4.804;2023-08-07T00:09:06;100088.03;;;19.36
74321;BMP280;62738;45.772;4.804;2023-08-07T00:11:33;100083.84;;;19.37
74321;BMP280;62738;45.772;4.804;2023-08-07T00:14:00;100089.47;;;19.37
74321;BMP280;62738;45.772;4.804;2023-08-07T00:16:27;100088.47;;;19.44
74321;BMP280;62738;45.772;4.804;2023-08-07T00:18:54;100095.97;;;19.54
74321;BMP280;62738;45.772;4.804;2023-08-07T00:21:22;100097.88;;;19.63
74321;BMP280;62738;45.772;4.804;2023-08-07T00:23:49;100100.78;;;19.26
74321;BMP280;62738;45.772;4.804;2023-08-07T00:26:17;100097.81;;;18.85
74321;BMP280;62738;45.772;4.804;2023-08-07T00:28:44;100098.88;;;18.91
74321;BMP280;62738;45.772;4.804;2023-08-07T00:31:11;100095.28;;;19.02
74321;BMP280;62738;45.772;4.804;2023-08-07T00:33:39;100102.22;;;19.13
74321;BMP280;62738;45.772;4.804;2023-08-07T00:36:05;100108.69;;;19.16
74321;BMP280;62738;45.772;4.804;2023-08-07T00:38:32;100104.34;;;19.01
74321;BMP280;62738;45.772;4.804;2023-08-07T00:40:59;100093.66;;;18.86
74321;BMP280;62738;45.772;4.804;2023-08-07T00:43:26;100094.50;;;18.88
74321;BMP280;62738;45.772;4.804;2023-08-07T00:45:53;100090.69;;;18.95
74321;BMP280;62738;45.772;4.804;2023-08-07T00:48:20;100094.53;;;19.14
74321;BMP280;62738;45.772;4.804;2023-08-07T00:50:48;100095.56;;;19.20
74321;BMP280;62738;45.772;4.804;2023-08-07T00:53:15;100109.69;;;19.09
74321;BMP280;62738;45.772;4.804;2023-08-07T00:55:42;100100.69;;;18.98
74321;BMP280;62738;45.772;4.804;2023-08-07T00:58:09;100085.78;;;18.96
74321;BMP280;62738;45.772;4.804;2023-08-07T01:03:20;100091.47;;;18.84
74321;BMP280;62738;45.772;4.804;2023-08-07T01:05:47;100089.03;;;18.79
74321;BMP280;62738;45.772;4.804;2023-08-07T01:08:13;100090.78;;;18.72
74321;BMP280;62738;45.772;4.804;2023-08-07T01:10:53;100088.03;;;18.49
74321;BMP280;62738;45.772;4.804;2023-08-07T01:13:30;100085.69;;;18.57
74321;BMP280;62738;45.772;4.804;2023-08-07T01:16:02;100083.91;;;18.38
74321;BMP280;62738;45.772;4.804;2023-08-07T01:18:34;100085.91;;;18.13
74321;BMP280;62738;45.772;4.804;2023-08-07T01:21:03;100086.03;;;18.03
74321;BMP280;62738;45.772;4.804;2023-08-07T01:23:30;100076.97;;;18.16
74321;BMP280;62738;45.772;4.804;2023-08-07T01:25:56;100080.28;;;18.24
74321;BMP280;62738;45.772;4.804;2023-08-07T01:28:57;100075.84;;;18.44
74321;BMP280;62738;45.772;4.804;2023-08-07T01:31:25;100086.75;;;18.27
74321;BMP280;62738;45.772;4.804;2023-08-07T01:34:03;100092.13;;;18.23
74321;BMP280;62738;45.772;4.804;2023-08-07T01:36:30;100089.06;;;18.19
74321;BMP280;62738;45.772;4.804;2023-08-07T01:38:59;100087.97;;;18.24
74321;BMP280;62738;45.772;4.804;2023-08-07T01:41:26;100093.09;;;18.27
74321;BMP280;62738;45.772;4.804;2023-08-07T01:43:54;100084.91;;;18.20
74321;BMP280;62738;45.772;4.804;2023-08-07T01:46:21;100096.00;;;18.41
74321;BMP280;62738;45.772;4.804;2023-08-07T01:48:47;100101.00;;;18.42
74321;BMP280;62738;45.772;4.804;2023-08-07T01:51:14;100111.53;;;18.30
74321;BMP280;62738;45.772;4.804;2023-08-07T01:53:43;100119.34;;;18.32
74321;BMP280;62738;45.772;4.804;2023-08-07T01:56:10;100121.03;;;18.37
74321;BMP280;62738;45.772;4.804;2023-08-07T01:58:37;100116.28;;;18.28
74321;BMP280;62738;45.772;4.804;2023-08-07T02:01:03;100122.91;;;18.21
74321;BMP280;62738;45.772;4.804;2023-08-07T02:03:30;100119.00;;;18.26
74321;BMP280;62738;45.772;4.804;2023-08-07T02:05:57;100104.81;;;18.24
74321;BMP280;62738;45.772;4.804;2023-08-07T02:08:23;100106.13;;;18.34
74321;BMP280;62738;45.772;4.804;2023-08-07T02:10:50;100104.66;;;18.45
74321;BMP280;62738;45.772;4.804;2023-08-07T02:13:17;100099.38;;;18.51
74321;BMP280;62738;45.772;4.804;2023-08-07T02:15:43;100102.81;;;18.38
74321;BMP280;62738;45.772;4.804;2023-08-07T02:18:10;100095.81;;;18.62
74321;BMP280;62738;45.772;4.804;2023-08-07T02:20:37;100097.81;;;18.48
74321;BMP280;62738;45.772;4.804;2023-08-07T02:23:03;100105.66;;;18.15
74321;BMP280;62738;45.772;4.804;2023-08-07T02:25:30;100108.28;;;17.99
74321;BMP280;62738;45.772;4.804;2023-08-07T02:27:56;100102.97;;;18.05
74321;BMP280;62738;45.772;4.804;2023-08-07T02:30:23;100112.13;;;18.05
74321;BMP280;62738;45.772;4.804;2023-08-07T02:32:50;100100.16;;;18.05
74321;BMP280;62738;45.772;4.804;2023-08-07T02:35:16;100094.22;;;17.99
74321;BMP280;62738;45.772;4.804;2023-08-07T02:37:43;100102.38;;;18.06
74321;BMP280;62738;45.772;4.804;2023-08-07T02:40:10;100100.56;;;17.99
74321;BMP280;62738;45.772;4.804;2023-08-07T02:42:37;100095.78;;;17.67
74321;BMP280;62738;45.772;4.804;2023-08-07T02:45:05;100113.09;;;17.64
74321;BMP280;62738;45.772;4.804;2023-08-07T02:47:31;100105.00;;;17.35
74321;BMP280;62738;45.772;4.804;2023-08-07T02:49:58;100115.72;;;17.38
74321;BMP280;62738;45.772;4.804;2023-08-07T02:52:26;100112.28;;;17.28
74321;BMP280;62738;45.772;4.804;2023-08-07T02:54:52;100112.22;;;17.17
74321;BMP280;62738;45.772;4.804;2023-08-07T02:57:19;100109.84;;;17.01
74321;BMP280;62738;45.772;4.804;2023-08-07T02:59:45;100110.66;;;16.92
74321;BMP280;62738;45.772;4.804;2023-08-07T03:02:12;100114.66;;;17.10
74321;BMP280;62738;45.772;4.804;2023-08-07T03:04:39;100106.59;;;17.05
74321;BMP280;62738;45.772;4.804;2023-08-07T03:07:05;100108.34;;;17.22
74321;BMP280;62738;45.772;4.804;2023-08-07T03:09:32;100107.91;;;17.37
74321;BMP280;62738;45.772;4.804;2023-08-07T03:11:59;100111.19;;;17.33
74321;BMP280;62738;45.772;4.804;2023-08-07T03:14:30;100112.88;;;17.27
74321;BMP280;62738;45.772;4.804;2023-08-07T03:16:57;100106.41;;;17.24
74321;BMP280;62738;45.772;4.804;2023-08-07T03:19:24;100110.41;;;17.54
74321;BMP280;62738;45.772;4.804;2023-08-07T03:21:50;100110.88;;;17.50
74321;BMP280;62738;45.772;4.804;2023-08-07T03:24:17;100112.94;;;17.50
74321;BMP280;62738;45.772;4.804;2023-08-07T03:26:44;100101.97;;;17.54
74321;BMP280;62738;45.772;4.804;2023-08-07T03:29:10;100100.75;;;17.45
74321;BMP280;62738;45.772;4.804;2023-08-07T03:31:37;100095.78;;;17.67
74321;BMP280;62738;45.772;4.804;2023-08-07T03:34:04;100094.44;;;17.68
74321;BMP280;62738;45.772;4.804;2023-08-07T03:36:30;100099.06;;;17.64
74321;BMP280;62738;45.772;4.804;2023-08-07T03:38:57;100088.22;;;17.81
74321;BMP280;62738;45.772;4.804;2023-08-07T03:41:24;100089.09;;;17.84
74321;BMP280;62738;45.772;4.804;2023-08-07T03:43:50;100093.59;;;17.77
74321;BMP280;62738;45.772;4.804;2023-08-07T03:46:17;100086.63;;;17.78
74321;BMP280;62738;45.772;4.804;2023-08-07T03:48:44;100094.34;;;17.89
74321;BMP280;62738;45.772;4.804;2023-08-07T03:51:10;100092.84;;;18.00
74321;BMP280;62738;45.772;4.804;2023-08-07T03:53:37;100089.44;;;18.01
74321;BMP280;62738;45.772;4.804;2023-08-07T03:56:04;100093.47;;;18.10
74321;BMP280;62738;45.772;4.804;2023-08-07T03:58:31;100091.25;;;18.20
74321;BMP280;62738;45.772;4.804;2023-08-07T04:00:58;100096.75;;;18.30
74321;BMP280;62738;45.772;4.804;2023-08-07T04:03:24;100087.59;;;18.29
74321;BMP280;62738;45.772;4.804;2023-08-07T04:05:52;100095.19;;;18.27
74321;BMP280;62738;45.772;4.804;2023-08-07T04:08:21;100090.66;;;18.22
74321;BMP280;62738;45.772;4.804;2023-08-07T04:11:01;100090.44;;;18.18
74321;BMP280;62738;45.772;4.804;2023-08-07T04:13:29;100092.72;;;18.21
74321;BMP280;62738;45.772;4.804;2023-08-07T04:15:56;100093.34;;;18.20
74321;BMP280;62738;45.772;4.804;2023-08-07T04:18:24;100088.09;;;17.91
74321;BMP280;62738;45.772;4.804;2023-08-07T04:20:54;100097.03;;;17.99
74321;BMP280;62738;45.772;4.804;2023-08-07T04:23:21;100104.22;;;17.90
74321;BMP280;62738;45.772;4.804;2023-08-07T04:25:48;100095.53;;;17.86
74321;BMP280;62738;45.772;4.804;2023-08-07T04:28:15;100100.41;;;17.86
74321;BMP280;62738;45.772;4.804;2023-08-07T04:30:43;100097.25;;;17.68
74321;BMP280;62738;45.772;4.804;2023-08-07T04:33:10;100100.06;;;17.68
74321;BMP280;62738;45.772;4.804;2023-08-07T04:35:36;100093.13;;;17.92
74321;BMP280;62738;45.772;4.804;2023-08-07T04:38:03;100103.47;;;18.01
74321;BMP280;62738;45.772;4.804;2023-08-07T04:40:30;100096.75;;;18.18
74321;BMP280;62738;45.772;4.804;2023-08-07T04:42:56;100099.44;;;18.16
74321;BMP280;62738;45.772;4.804;2023-08-07T04:45:23;100098.22;;;18.08
74321;BMP280;62738;45.772;4.804;2023-08-07T04:47:50;100098.69;;;18.04
74321;BMP280;62738;45.772;4.804;2023-08-07T04:50:17;100100.06;;;18.15
74321;BMP280;62738;45.772;4.804;2023-08-07T04:52:44;100104.81;;;18.24
74321;BMP280;62738;45.772;4.804;2023-08-07T04:55:10;100102.28;;;17.93
74321;BMP280;62738;45.772;4.804;2023-08-07T04:57:37;100111.91;;;18.01
74321;BMP280;62738;45.772;4.804;2023-08-07T05:00:04;100115.09;;;17.84
74321;BMP280;62738;45.772;4.804;2023-08-07T05:02:31;100122.13;;;18.08
74321;BMP280;62738;45.772;4.804;2023-08-07T05:04:58;100119.72;;;18.15
74321;BMP280;62738;45.772;4.804;2023-08-07T05:07:24;100115.31;;;18.12
74321;BMP280;62738;45.772;4.804;2023-08-07T05:09:51;100124.72;;;18.28
74321;BMP280;62738;45.772;4.804;2023-08-07T05:12:18;100125.06;;;18.45
74321;BMP280;62738;45.772;4.804;2023-08-07T05:14:44;100117.66;;;18.27
74321;BMP280;62738;45.772;4.804;2023-08-07T05:17:11;100125.56;;;18.19
74321;BMP280;62738;45.772;4.804;2023-08-07T05:19:39;100122.53;;;18.15
74321;BMP280;62738;45.772;4.804;2023-08-07T05:22:06;100128.03;;;18.13
74321;BMP280;62738;45.772;4.804;2023-08-07T05:24:32;100133.38;;;18.32
74321;BMP280;62738;45.772;4.804;2023-08-07T05:27:07;100137.53;;;18.31
74321;BMP280;62738;45.772;4.804;2023-08-07T05:29:35;100129.47;;;18.14
74321;BMP280;62738;45.772;4.804;2023-08-07T05:32:13;100141.69;;;18.30
74321;BMP280;62738;45.772;4.804;2023-08-07T05:34:41;100144.38;;;18.28
74321;BMP280;62738;45.772;4.804;2023-08-07T05:37:08;100146.56;;;18.41
74321;BMP280;62738;45.772;4.804;2023-08-07T05:39:35;100159.50;;;18.58
74321;BMP280;62738;45.772;4.804;2023-08-07T05:42:02;100152.28;;;18.43
74321;BMP280;62738;45.772;4.804;2023-08-07T05:44:29;100150.72;;;18.17
74321;BMP280;62738;45.772;4.804;2023-08-07T05:46:56;100153.06;;;18.20
74321;BMP280;62738;45.772;4.804;2023-08-07T05:49:23;100155.13;;;17.96
74321;BMP280;62738;45.772;4.804;2023-08-07T05:51:52;100146.06;;;18.10
74321;BMP280;62738;45.772;4.804;2023-08-07T05:54:19;100152.28;;;18.43
74321;BMP280;62738;45.772;4.804;2023-08-07T05:56:45;100152.97;;;18.67
74321;BMP280;62738;45.772;4.804;2023-08-07T05:59:12;100162.84;;;18.79
74321;BMP280;62738;45.772;4.804;2023-08-07T06:01:39;100157.56;;;18.60
74321;BMP280;62738;45.772;4.804;2023-08-07T06:04:07;100156.75;;;18.71
74321;BMP280;62738;45.772;4.804;2023-08-07T06:06:35;100157.38;;;18.81
74321;BMP280;62738;45.772;4.804;2023-08-07T06:09:02;100159.19;;;18.65
74321;BMP280;62738;45.772;4.804;2023-08-07T06:11:30;100148.66;;;18.29
74321;BMP280;62738;45.772;4.804;2023-08-07T06:13:57;100148.06;;;18.30
74321;BMP280;62738;45.772;4.804;2023-08-07T06:16:24;100149.50;;;18.31
74321;BMP280;62738;45.772;4.804;2023-08-07T06:18:51;100143.88;;;18.20
74321;BMP280;62738;45.772;4.804;2023-08-07T06:21:18;100144.03;;;18.22
74321;BMP280;62738;45.772;4.804;2023-08-07T06:23:44;100146.84;;;18.22
74321;BMP280;62738;45.772;4.804;2023-08-07T06:26:11;100146.31;;;18.37
74321;BMP280;62738;45.772;4.804;2023-08-07T06:28:38;100144.13;;;18.35
74321;BMP280;62738;45.772;4.804;2023-08-07T06:31:10;100145.47;;;18.34
74321;BMP280;62738;45.772;4.804;2023-08-07T06:33:37;100145.28;;;18.67
74321;BMP280;62738;45.772;4.804;2023-08-07T06:36:04;100151.19;;;18.96
74321;BMP280;62738;45.772;4.804;2023-08-07T06:38:31;100160.97;;;18.95
74321;BMP280;62738;45.772;4.804;2023-08-07T06:40:57;100164.59;;;19.10
74321;BMP280;62738;45.772;4.804;2023-08-07T06:43:24;100166.06;;;19.36
74321;BMP280;62738;45.772;4.804;2023-08-07T06:45:52;100167.66;;;19.14
74321;BMP280;62738;45.772;4.804;2023-08-07T06:48:19;100160.53;;;19.38
74321;BMP280;62738;45.772;4.804;2023-08-07T06:50:49;100163.13;;;19.34
74321;BMP280;62738;45.772;4.804;2023-08-07T06:53:16;100153.28;;;19.46
74321;BMP280;62738;45.772;4.804;2023-08-07T06:55:46;100170.38;;;19.51
74321;BMP280;62738;45.772;4.804;2023-08-07T06:58:13;100163.97;;;19.62
74321;BMP280;62738;45.772;4.804;2023-08-07T07:00:40;100167.56;;;19.76
74321;BMP280;62738;45.772;4.804;2023-08-07T07:03:06;100165.97;;;19.86
74321;BMP280;62738;45.772;4.804;2023-08-07T07:05:34;100170.09;;;19.97
74321;BMP280;62738;45.772;4.804;2023-08-07T07:08:01;100168.44;;;20.06
74321;BMP280;62738;45.772;4.804;2023-08-07T07:10:27;100164.44;;;20.24
74321;BMP280;62738;45.772;4.804;2023-08-07T07:12:54;100173.13;;;20.15
74321;BMP280;62738;45.772;4.804;2023-08-07T07:15:21;100166.03;;;20.27
74321;BMP280;62738;45.772;4.804;2023-08-07T07:17:48;100168.41;;;20.33
74321;BMP280;62738;45.772;4.804;2023-08-07T07:20:15;100175.72;;;20.38
74321;BMP280;62738;45.772;4.804;2023-08-07T07:22:41;100174.03;;;20.46
74321;BMP280;62738;45.772;4.804;2023-08-07T07:25:08;100168.41;;;20.46
74321;BMP280;62738;45.772;4.804;2023-08-07T07:27:35;100168.94;;;20.43
74321;BMP280;62738;45.772;4.804;2023-08-07T07:30:02;100166.53;;;20.51
74321;BMP280;62738;45.772;4.804;2023-08-07T07:32:30;100162.22;;;20.50
74321;BMP280;62738;45.772;4.804;2023-08-07T07:34:57;100165.06;;;20.64
74321;BMP280;62738;45.772;4.804;2023-08-07T07:37:24;100166.19;;;20.72
74321;BMP280;62738;45.772;4.804;2023-08-07T07:39:51;100165.88;;;20.66
74321;BMP280;62738;45.772;4.804;2023-08-07T07:42:17;100176.13;;;20.46
74321;BMP280;62738;45.772;4.804;2023-08-07T07:44:44;100171.16;;;20.31
74321;BMP280;62738;45.772;4.804;2023-08-07T07:47:11;100172.03;;;20.49
74321;BMP280;62738;45.772;4.804;2023-08-07T07:49:44;100173.09;;;20.69
74321;BMP280;62738;45.772;4.804;2023-08-07T07:52:10;100173.03;;;20.83
74321;BMP280;62738;45.772;4.804;2023-08-07T07:54:37;100174.28;;;20.80
74321;BMP280;62738;45.772;4.804;2023-08-07T07:57:04;100175.75;;;20.81
74321;BMP280;62738;45.772;4.804;2023-08-07T07:59:30;100170.97;;;20.70
74321;BMP280;62738;45.772;4.804;2023-08-07T08:01:57;100180.72;;;20.67
74321;BMP280;62738;45.772;4.804;2023-08-07T08:04:24;100175.28;;;20.71
74321;BMP280;62738;45.772;4.804;2023-08-07T08:06:51;100171.88;;;20.74
74321;BMP280;62738;45.772;4.804;2023-08-07T08:09:18;100176.44;;;20.95
74321;BMP280;62738;45.772;4.804;2023-08-07T08:11:45;100180.16;;;21.13
74321;BMP280;62738;45.772;4.804;2023-08-07T08:14:11;100180.81;;;21.27
74321;BMP280;62738;45.772;4.804;2023-08-07T08:16:38;100183.50;;;21.39
74321;BMP280;62738;45.772;4.804;2023-08-07T08:19:05;100184.00;;;21.35
74321;BMP280;62738;45.772;4.804;2023-08-07T08:21:33;100186.16;;;21.51
74321;BMP280;62738;45.772;4.804;2023-08-07T08:24:00;100183.34;;;21.51
74321;BMP280;62738;45.772;4.804;2023-08-07T08:26:27;100189.19;;;21.55
74321;BMP280;62738;45.772;4.804;2023-08-07T08:28:54;100183.00;;;21.58
74321;BMP280;62738;45.772;4.804;2023-08-07T08:31:21;100191.31;;;21.40
74321;BMP280;62738;45.772;4.804;2023-08-07T08:33:48;100198.06;;;21.33
74321;BMP280;62738;45.772;4.804;2023-08-07T08:36:15;100187.88;;;21.42
74321;BMP280;62738;45.772;4.804;2023-08-07T08:38:42;100188.41;;;21.38
74321;BMP280;62738;45.772;4.804;2023-08-07T08:41:09;100188.53;;;21.56
74321;BMP280;62738;45.772;4.804;2023-08-07T08:43:37;100190.97;;;21.48
74321;BMP280;62738;45.772;4.804;2023-08-07T08:46:05;100198.09;;;21.49
74321;BMP280;62738;45.772;4.804;2023-08-07T08:48:34;100178.81;;;21.75
74321;BMP280;62738;45.772;4.804;2023-08-07T08:51:03;100182.81;;;21.54
74321;BMP280;62738;45.772;4.804;2023-08-07T08:53:32;100199.63;;;21.52
74321;BMP280;62738;45.772;4.804;2023-08-07T08:56:00;100196.81;;;21.52
74321;BMP280;62738;45.772;4.804;2023-08-07T08:58:28;100196.44;;;21.75
74321;BMP280;62738;45.772;4.804;2023-08-07T09:00:55;100190.09;;;21.75
74321;BMP280;62738;45.772;4.804;2023-08-07T09:03:23;100200.56;;;22.04
74321;BMP280;62738;45.772;4.804;2023-08-07T09:05:53;100192.09;;;21.72
74321;BMP280;62738;45.772;4.804;2023-08-07T09:08:22;100195.19;;;21.78
74321;BMP280;62738;45.772;4.804;2023-08-07T09:10:50;100196.81;;;21.83
74321;BMP280;62738;45.772;4.804;2023-08-07T09:13:20;100199.56;;;21.97
74321;BMP280;62738;45.772;4.804;2023-08-07T09:15:50;100195.44;;;22.00
74321;BMP280;62738;45.772;4.804;2023-08-07T09:18:17;100201.59;;;21.94
74321;BMP280;62738;45.772;4.804;2023-08-07T09:20:45;100206.84;;;22.18
74321;BMP280;62738;45.772;4.804;2023-08-07T09:23:11;100206.09;;;22.33
74321;BMP280;62738;45.772;4.804;2023-08-07T09:25:38;100215.94;;;22.65
74321;BMP280;62738;45.772;4.804;2023-08-07T09:28:05;100200.94;;;22.78
74321;BMP280;62738;45.772;4.804;2023-08-07T09:30:34;100208.69;;;22.95
74321;BMP280;62738;45.772;4.804;2023-08-07T09:33:01;100209.53;;;23.16
74321;BMP280;62738;45.772;4.804;2023-08-07T09:35:30;100200.31;;;22.97
74321;BMP280;62738;45.772;4.804;2023-08-07T09:37:58;100194.22;;;23.23
74321;BMP280;62738;45.772;4.804;2023-08-07T09:40:25;100194.31;;;23.07
74321;BMP280;62738;45.772;4.804;2023-08-07T09:42:54;100206.59;;;22.96
74321;BMP280;62738;45.772;4.804;2023-08-07T09:45:25;100190.50;;;23.01
74321;BMP280;62738;45.772;4.804;2023-08-07T09:47:59;100206.44;;;22.92
74321;BMP280;62738;45.772;4.804;2023-08-07T09:50:26;100203.22;;;22.82
74321;BMP280;62738;45.772;4.804;2023-08-07T09:52:54;100206.94;;;22.53
74321;BMP280;62738;45.772;4.804;2023-08-07T09:55:22;100207.63;;;22.36
74321;BMP280;62738;45.772;4.804;2023-08-07T09:57:49;100212.25;;;22.45
74321;BMP280;62738;45.772;4.804;2023-08-07T10:00:17;100201.53;;;22.59
74321;BMP280;62738;45.772;4.804;2023-08-07T10:02:50;100200.88;;;22.43
74321;BMP280;62738;45.772;4.804;2023-08-07T10:05:17;100210.47;;;22.36
74321;BMP280;62738;45.772;4.804;2023-08-07T10:07:44;100196.31;;;22.36
74321;BMP280;62738;45.772;4.804;2023-08-07T10:10:11;100199.19;;;22.20
74321;BMP280;62738;45.772;4.804;2023-08-07T10:12:38;100206.56;;;22.12
74321;BMP280;62738;45.772;4.804;2023-08-07T10:15:05;100203.19;;;22.15
74321;BMP280;62738;45.772;4.804;2023-08-07T10:17:33;100204.91;;;22.22
74321;BMP280;62738;45.772;4.804;2023-08-07T10:20:00;100198.56;;;22.22
74321;BMP280;62738;45.772;4.804;2023-08-07T10:22:29;100194.34;;;22.07
74321;BMP280;62738;45.772;4.804;2023-08-07T10:24:59;100200.56;;;21.88
74321;BMP280;62738;45.772;4.804;2023-08-07T10:27:29;100199.00;;;22.01
74321;BMP280;62738;45.772;4.804;2023-08-07T10:29:58;100198.38;;;22.18
74321;BMP280;62738;45.772;4.804;2023-08-07T10:32:27;100198.22;;;22.47
74321;BMP280;62738;45.772;4.804;2023-08-07T10:34:54;100187.44;;;22.10
74321;BMP280;62738;45.772;4.804;2023-08-07T10:37:43;100196.50;;;22.40
74321;BMP280;62738;45.772;4.804;2023-08-07T10:40:12;100192.00;;;22.51
74321;BMP280;62738;45.772;4.804;2023-08-07T10:45:24;100182.06;;;22.01
74321;BMP280;62738;45.772;4.804;2023-08-07T10:50:32;100181.16;;;22.29
74321;BMP280;62738;45.772;4.804;2023-08-07T10:53:03;100192.13;;;22.37
74321;BMP280;62738;45.772;4.804;2023-08-07T10:55:48;100184.44;;;22.55
74321;BMP280;62738;45.772;4.804;2023-08-07T10:58:41;100172.97;;;22.86
74321;BMP280;62738;45.772;4.804;2023-08-07T11:01:21;100168.19;;;22.91
74321;BMP280;62738;45.772;4.804;2023-08-07T11:03:56;100179.03;;;22.96
74321;BMP280;62738;45.772;4.804;2023-08-07T11:06:31;100188.22;;;22.79
74321;BMP280;62738;45.772;4.804;2023-08-07T11:08:59;100183.81;;;22.41
74321;BMP280;62738;45.772;4.804;2023-08-07T11:11:27;100181.63;;;22.39
74321;BMP280;62738;45.772;4.804;2023-08-07T11:13:53;100179.16;;;22.65
74321;BMP280;62738;45.772;4.804;2023-08-07T11:16:20;100175.94;;;22.90
74321;BMP280;62738;45.772;4.804;2023-08-07T11:18:50;100183.78;;;22.92
74321;BMP280;62738;45.772;4.804;2023-08-07T11:21:17;100185.72;;;23.05
74321;BMP280;62738;45.772;4.804;2023-08-07T11:23:45;100182.25;;;23.07
74321;BMP280;62738;45.772;4.804;2023-08-07T11:26:12;100178.22;;;23.12
74321;BMP280;62738;45.772;4.804;2023-08-07T11:28:38;100178.09;;;23.27
74321;BMP280;62738;45.772;4.804;2023-08-07T11:31:06;100179.47;;;23.44
74321;BMP280;62738;45.772;4.804;2023-08-07T11:33:33;100165.25;;;23.42
74321;BMP280;62738;45.772;4.804;2023-08-07T11:35:59;100180.72;;;23.78
74321;BMP280;62738;45.772;4.804;2023-08-07T11:38:34;100174.69;;;23.88
74321;BMP280;62738;45.772;4.804;2023-08-07T11:41:05;100173.53;;;23.75
74321;BMP280;62738;45.772;4.804;2023-08-07T11:43:33;100165.84;;;23.97
74321;BMP280;62738;45.772;4.804;2023-08-07T11:46:02;100163.94;;;23.84
74321;BMP280;62738;45.772;4.804;2023-08-07T11:48:31;100171.19;;;23.89
74321;BMP280;62738;45.772;4.804;2023-08-07T11:50:58;100160.16;;;23.58
74321;BMP280;62738;45.772;4.804;2023-08-07T11:53:28;100165.91;;;23.60
74321;BMP280;62738;45.772;4.804;2023-08-07T11:55:56;100161.69;;;23.61
74321;BMP280;62738;45.772;4.804;2023-08-07T11:58:24;100165.41;;;23.66
74321;BMP280;62738;45.772;4.804;2023-08-07T12:00:52;100155.56;;;23.49
74321;BMP280;62738;45.772;4.804;2023-08-07T12:03:33;100161.94;;;23.49
74321;BMP280;62738;45.772;4.804;2023-08-07T12:06:04;100154.59;;;23.60
74321;BMP280;62738;45.772;4.804;2023-08-07T12:08:36;100156.44;;;23.34
74321;BMP280;62738;45.772;4.804;2023-08-07T12:11:04;100157.44;;;23.42
74321;BMP280;62738;45.772;4.804;2023-08-07T12:13:32;100166.22;;;23.50
74321;BMP280;62738;45.772;4.804;2023-08-07T12:16:02;100156.25;;;23.67
74321;BMP280;62738;45.772;4.804;2023-08-07T12:18:32;100156.53;;;23.75
74321;BMP280;62738;45.772;4.804;2023-08-07T12:21:01;100158.63;;;23.55
74321;BMP280;62738;45.772;4.804;2023-08-07T12:23:28;100159.59;;;23.81
74321;BMP280;62738;45.772;4.804;2023-08-07T12:25:55;100147.50;;;24.00
74321;BMP280;62738;45.772;4.804;2023-08-07T12:28:21;100153.88;;;24.21
74321;BMP280;62738;45.772;4.804;2023-08-07T12:30:50;100139.00;;;24.42
74321;BMP280;62738;45.772;4.804;2023-08-07T12:33:17;100140.66;;;24.49
74321;BMP280;62738;45.772;4.804;2023-08-07T12:35:44;100142.94;;;24.54
74321;BMP280;62738;45.772;4.804;2023-08-07T12:38:11;100145.19;;;24.58
74321;BMP280;62738;45.772;4.804;2023-08-07T12:40:41;100145.22;;;24.17
74321;BMP280;62738;45.772;4.804;2023-08-07T12:43:09;100143.88;;;23.98
74321;BMP280;62738;45.772;4.804;2023-08-07T12:45:36;100138.00;;;23.92
74321;BMP280;62738;45.772;4.804;2023-08-07T12:48:06;100138.34;;;23.82
74321;BMP280;62738;45.772;4.804;2023-08-07T12:50:33;100133.88;;;23.75
74321;BMP280;62738;45.772;4.804;2023-08-07T12:53:00;100139.38;;;23.71
74321;BMP280;62738;45.772;4.804;2023-08-07T12:55:27;100129.47;;;24.12
74321;BMP280;62738;45.772;4.804;2023-08-07T12:57:55;100129.94;;;24.47
74321;BMP280;62738;45.772;4.804;2023-08-07T13:00:22;100130.97;;;24.56
74321;BMP280;62738;45.772;4.804;2023-08-07T21:04:00;100009.56;;;22.14
74321;BMP280;62738;45.772;4.804;2023-08-07T21:06:27;100014.50;;;22.14
74321;BMP280;62738;45.772;4.804;2023-08-07T21:08:53;100011.03;;;22.15
74321;BMP280;62738;45.772;4.804;2023-08-07T21:11:20;100000.78;;;22.24
74321;BMP280;62738;45.772;4.804;2023-08-07T21:13:47;100009.34;;;22.26
74321;BMP280;62738;45.772;4.804;2023-08-07T21:16:13;100003.59;;;22.24
74321;BMP280;62738;45.772;4.804;2023-08-07T21:18:42;100005.31;;;22.13
74321;BMP280;62738;45.772;4.804;2023-08-07T21:21:09;100000.44;;;22.16
74321;BMP280;62738;45.772;4.804;2023-08-07T21:23:35;100005.47;;;22.17
74321;BMP280;62738;45.772;4.804;2023-08-07T21:26:02;100002.16;;;22.23
74321;BMP280;62738;45.772;4.804;2023-08-07T21:28:29;100005.22;;;22.29
74321;BMP280;62738;45.772;4.804;2023-08-07T21:30:55;100010.88;;;22.29
74321;BMP280;62738;45.772;4.804;2023-08-07T21:33:22;100005.38;;;22.33
74321;BMP280;62738;45.772;4.804;2023-08-07T21:35:50;100001.25;;;22.36
74321;BMP280;62738;45.772;4.804;2023-08-07T21:38:16;100007.72;;;22.38
74321;BMP280;62738;45.772;4.804;2023-08-07T21:40:43;100011.44;;;22.43
74321;BMP280;62738;45.772;4.804;2023-08-07T21:43:10;100012.91;;;22.44
74321;BMP280;62738;45.772;4.804;2023-08-07T21:45:37;100014.66;;;22.53
74321;BMP280;62738;45.772;4.804;2023-08-07T21:48:03;100007.84;;;22.60
74321;BMP280;62738;45.772;4.804;2023-08-07T21:50:30;100006.09;;;22.51
74321;BMP280;62738;45.772;4.804;2023-08-07T21:52:57;99999.97;;;22.39
74321;BMP280;62738;45.772;4.804;2023-08-07T21:55:23;100006.75;;;22.32
74321;BMP280;62738;45.772;4.804;2023-08-07T21:57:50;100002.28;;;22.27
74321;BMP280;62738;45.772;4.804;2023-08-07T22:00:17;99994.22;;;22.19
74321;BMP280;62738;45.772;4.804;2023-08-07T22:02:46;99996.34;;;22.19
74321;BMP280;62738;45.772;4.804;2023-08-07T22:05:13;99997.22;;;22.23
74321;BMP280;62738;45.772;4.804;2023-08-07T22:07:40;99997.84;;;22.04
74321;BMP280;62738;45.772;4.804;2023-08-07T22:10:08;99997.56;;;22.14